Detroit Express — VRLX4 — position and weather

sailwx.info

Track history (hours):
 
Tides and Currents Weather Stations Pressure Air Temp Water Temp Dewpoint Dewpoint Depression Visibility Wind Speed Wind Dir Waves Ship Positions

Detroit Express

Last reported at 2018-Jun-17 21:21 UTC. Time now 2018-Jun-17 21:56 UTC.
Position N 35°56' W 005°31'.

Length 228 m; draft 9.5 m.

Type: Ship (hazmat cat D). MMSI: 477776300.

Date/timePositionNaut miles runAvg speedWind from/ knotsBaromVisibWave heightAir tempDewpointWater temp
2018-Jun-17 21:21N 35°56' W 005°31'2 0.2
2018-Jun-17 08:02N 35°54' W 005°29'0 0.2
2018-Jun-17 08:00N 35°54' W 005°29'2 3.4
2018-Jun-17 07:29N 35°55' W 005°31'2 1.5
2018-Jun-17 06:02N 35°54' W 005°33'0 4.1
2018-Jun-17 05:59N 35°54' W 005°33'1 2.0
2018-Jun-17 05:27N 35°54' W 005°35'0 0.5
2018-Jun-17 05:00N 35°54' W 005°34'1 1.4
2018-Jun-17 04:20N 35°54' W 005°33'1 1.6
2018-Jun-17 04:00N 35°54' W 005°33'1 2.5
2018-Jun-17 03:27N 35°56' W 005°34'2 4.6
2018-Jun-17 03:00N 35°57' W 005°33'4 7.5
2018-Jun-17 02:30N 35°59' W 005°28'611.4
2018-Jun-17 02:00N 36°00' W 005°22'814.9
2018-Jun-17 01:27N 36°00' W 005°11'613.2
2018-Jun-17 01:00N 35°59' W 005°04'714.3
2018-Jun-17 00:30N 35°59' W 004°55'713.6
2018-Jun-16 23:59N 35°59' W 004°47'3 1.1
2018-Jun-16 21:40N 35°56' W 004°46'1 1.3
2018-Jun-16 21:16N 35°56' W 004°46'0 1.1
2018-Jun-16 20:59N 35°55' W 004°47'1 1.2
2018-Jun-16 20:28N 35°55' W 004°47'1 1.2
2018-Jun-16 19:57N 35°54' W 004°48'1 1.1
2018-Jun-16 19:21N 35°54' W 004°48'5 1.1
2018-Jun-16 15:10N 35°50' W 004°51'19 2.6
2018-Jun-16 07:50N 35°59' W 005°12'619.6
2018-Jun-16 07:31N 36°01' W 005°19'712.6
2018-Jun-16 06:59N 36°06' W 005°24'2 3.5
2018-Jun-16 06:29N 36°08' W 005°25'0 0.0
2018-Jun-16 05:53N 36°08' W 005°25'0 0.0
2018-Jun-16 05:29N 36°08' W 005°25'0 0.0
2018-Jun-16 04:59N 36°08' W 005°25'0 0.0
2018-Jun-16 04:29N 36°08' W 005°25'0 0.0
2018-Jun-16 03:59N 36°08' W 005°25'0 0.0
2018-Jun-16 03:29N 36°08' W 005°25'0 0.0
2018-Jun-16 02:53N 36°08' W 005°25'0 0.0
2018-Jun-16 02:29N 36°08' W 005°25'0 0.0
2018-Jun-16 01:59N 36°08' W 005°25'0 0.0
2018-Jun-16 01:29N 36°08' W 005°25'0 0.0
2018-Jun-16 00:59N 36°08' W 005°25'0 0.0
2018-Jun-16 00:29N 36°08' W 005°25'0 0.0
2018-Jun-15 23:59N 36°08' W 005°25'0 0.0
2018-Jun-15 23:29N 36°08' W 005°25'0 0.0
2018-Jun-15 22:59N 36°08' W 005°25'0 0.0
2018-Jun-15 22:29N 36°08' W 005°25'0 0.0
2018-Jun-15 21:59N 36°08' W 005°25'0 0.0
2018-Jun-15 21:29N 36°08' W 005°25'0 0.0
2018-Jun-15 20:59N 36°08' W 005°25'0 0.0
2018-Jun-15 20:29N 36°08' W 005°25'0 0.0
2018-Jun-15 19:59N 36°08' W 005°25'0 0.0
2018-Jun-15 19:29N 36°08' W 005°25'0 0.0
2018-Jun-15 18:59N 36°08' W 005°25'0 0.0
2018-Jun-15 18:29N 36°08' W 005°25'0 0.0
2018-Jun-15 17:59N 36°08' W 005°25'0 0.0
2018-Jun-15 17:29N 36°08' W 005°25'0 0.0
2018-Jun-15 16:59N 36°08' W 005°25'0 0.0
2018-Jun-15 16:29N 36°08' W 005°25'0 0.0
2018-Jun-15 15:59N 36°08' W 005°25'0 0.0
2018-Jun-15 15:29N 36°08' W 005°25'0 0.0
2018-Jun-15 14:47N 36°08' W 005°25'0 0.1
2018-Jun-15 14:30N 36°08' W 005°25'3 2.4
2018-Jun-15 13:26N 36°06' W 005°23'4 9.7
2018-Jun-15 13:00N 36°02' W 005°21'510.4
2018-Jun-15 12:30N 36°04' W 005°14'3 6.1
2018-Jun-15 12:00N 36°05' W 005°18'4 6.8
2018-Jun-15 11:23N 36°05' W 005°23'2 5.0
2018-Jun-15 11:01N 36°04' W 005°22'2 3.3
2018-Jun-15 10:30N 36°04' W 005°20'1 1.4
2018-Jun-15 10:00N 36°05' W 005°20'0 0.7
2018-Jun-15 09:30N 36°04' W 005°20'1 1.8
2018-Jun-15 09:00N 36°04' W 005°18'4 7.6
2018-Jun-15 08:30N 36°05' W 005°14'19712.7
2018-Jun-14 16:56N 37°03' W 001°19'816.5
2018-Jun-14 16:27N 37°08' W 001°11'816.8
2018-Jun-14 15:59N 37°14' W 001°04'1016.6
2018-Jun-14 15:23N 37°20' W 000°55'616.2
2018-Jun-14 15:00N 37°24' W 000°49'816.0
2018-Jun-14 14:29N 37°30' W 000°42'816.6
2018-Jun-14 14:00N 37°35' W 000°34'816.5
2018-Jun-14 13:30N 37°41' W 000°27'916.8
2018-Jun-14 12:59N 37°48' W 000°20'816.9
2018-Jun-14 12:29N 37°55' W 000°14'916.8
2018-Jun-14 11:59N 38°02' W 000°07'1216.7
2018-Jun-14 11:14N 38°13' W 000°00'516.8
2018-Jun-14 10:57N 38°17' E 000°03'716.8
2018-Jun-14 10:30N 38°23' E 000°08'20316.8
2018-Jun-13 22:22N 41°04' E 002°50'715.9
2018-Jun-13 21:57N 41°10' E 002°55'1116.4
2018-Jun-13 21:15N 41°19' E 003°04'417.4
2018-Jun-13 21:00N 41°22' E 003°08'917.7
2018-Jun-13 20:30N 41°29' E 003°15'918.2
2018-Jun-13 20:00N 41°36' E 003°23'11617.5
2018-Jun-13 13:22N 43°09' E 004°58'616.7
2018-Jun-13 13:00N 43°15' E 005°00'815.3
2018-Jun-13 12:30N 43°22' E 004°58'5 9.4
2018-Jun-13 11:59N 43°24' E 004°52'0 0.2
2018-Jun-13 10:30N 43°24' E 004°51'0 0.0
2018-Jun-13 10:00N 43°24' E 004°51'0 0.0
2018-Jun-13 09:30N 43°24' E 004°51'0 0.0
2018-Jun-13 09:00N 43°24' E 004°51'0 0.0
2018-Jun-13 08:29N 43°24' E 004°51'0 0.0
2018-Jun-13 07:56N 43°24' E 004°51'0 0.0
2018-Jun-13 07:26N 43°24' E 004°51'0 0.0
2018-Jun-13 05:51N 43°24' E 004°51'0 0.0
2018-Jun-13 05:30N 43°24' E 004°51'0 0.0
2018-Jun-13 04:49N 43°24' E 004°51'0 0.0
2018-Jun-13 04:30N 43°24' E 004°51'0 0.0
2018-Jun-13 04:00N 43°24' E 004°51'0 0.3
2018-Jun-13 03:28N 43°24' E 004°51'4 8.2
2018-Jun-13 02:59N 43°23' E 004°56'5 9.3
2018-Jun-13 02:30N 43°19' E 004°59'511.1
2018-Jun-13 02:00N 43°14' E 005°02'713.2
2018-Jun-13 01:29N 43°07' E 005°03'86 3.9
2018-Jun-12 03:12N 43°09' E 007°01'212.3
2018-Jun-12 03:00N 43°10' E 007°03'612.2
2018-Jun-12 02:30N 43°14' E 007°10'612.4
2018-Jun-12 02:00N 43°18' E 007°17'612.6
2018-Jun-12 01:30N 43°22' E 007°24'612.4
2018-Jun-12 00:59N 43°26' E 007°31'1012.4
2018-Jun-12 00:13N 43°31' E 007°41'312.3
2018-Jun-11 23:59N 43°33' E 007°44'612.1
2018-Jun-11 23:29N 43°37' E 007°51'1112.2
2018-Jun-11 22:35N 43°43' E 008°03'312.6
2018-Jun-11 22:20N 43°45' E 008°07'712.8
2018-Jun-11 21:46N 43°50' E 008°14'412.9
2018-Jun-11 21:29N 43°52' E 008°18'612.7
2018-Jun-11 20:59N 43°57' E 008°24'612.4
2018-Jun-11 20:30N 44°01' E 008°30'612.2
2018-Jun-11 20:00N 44°05' E 008°37'611.9
2018-Jun-11 19:30N 44°09' E 008°42'611.8
2018-Jun-11 19:00N 44°13' E 008°48'611.8
2018-Jun-11 18:30N 44°17' E 008°54'510.4
2018-Jun-11 18:00N 44°22' E 008°57'3 6.5
2018-Jun-11 17:31N 44°24' E 008°54'0 0.2
2018-Jun-11 17:00N 44°24' E 008°54'0 0.0
2018-Jun-11 16:30N 44°24' E 008°54'0 0.0
2018-Jun-11 16:00N 44°24' E 008°54'0 0.0
2018-Jun-11 15:30N 44°24' E 008°54'0 0.0
2018-Jun-11 14:57N 44°24' E 008°54'0 0.0
2018-Jun-11 14:30N 44°24' E 008°54'0 0.0
2018-Jun-11 13:57N 44°24' E 008°54'0 0.0
2018-Jun-11 13:30N 44°24' E 008°54'0 0.0
2018-Jun-11 12:57N 44°24' E 008°54'0 0.0
2018-Jun-11 12:30N 44°24' E 008°54'0 0.0
2018-Jun-11 12:00N 44°24' E 008°54'0 0.0
2018-Jun-11 11:27N 44°24' E 008°54'0 0.0
2018-Jun-11 11:00N 44°24' E 008°54'0 0.0
2018-Jun-11 10:30N 44°24' E 008°54'0 0.0
2018-Jun-11 09:57N 44°24' E 008°54'0 0.0
2018-Jun-11 09:30N 44°24' E 008°54'0 0.0
2018-Jun-11 09:00N 44°24' E 008°54'0 0.0
2018-Jun-11 08:30N 44°24' E 008°54'0 0.0
2018-Jun-11 08:00N 44°24' E 008°54'0 0.0
2018-Jun-11 07:30N 44°24' E 008°54'0 0.0
2018-Jun-11 07:00N 44°24' E 008°54'0 0.0
2018-Jun-11 06:30N 44°24' E 008°54'0 0.0
2018-Jun-11 06:00N 44°24' E 008°54'0 0.0
2018-Jun-11 05:30N 44°24' E 008°54'0 0.0
2018-Jun-11 05:00N 44°24' E 008°54'0 0.0
2018-Jun-11 04:30N 44°24' E 008°54'0 0.0
2018-Jun-11 04:00N 44°24' E 008°54'2 3.6
2018-Jun-11 03:30N 44°23' E 008°56'2 3.9
2018-Jun-11 03:00N 44°22' E 008°58'4 7.3
2018-Jun-11 02:30N 44°19' E 008°60'713.1
2018-Jun-11 02:00N 44°12' E 009°01'714.8
2018-Jun-11 01:30N 44°05' E 008°58'714.2
2018-Jun-11 01:00N 43°58' E 008°54'0 0.8
2018-Jun-11 00:30N 43°58' E 008°55'0 0.7
2018-Jun-11 00:00N 43°58' E 008°55'0 0.7
2018-Jun-10 23:30N 43°58' E 008°56'0 0.8
2018-Jun-10 23:00N 43°58' E 008°56'0 0.7
2018-Jun-10 22:30N 43°57' E 008°57'0 0.8
2018-Jun-10 22:00N 43°57' E 008°57'1 1.1
2018-Jun-10 21:30N 43°57' E 008°58'1 1.1
2018-Jun-10 21:00N 43°57' E 008°58'1 1.4
2018-Jun-10 20:30N 43°57' E 008°59'3 5.4
2018-Jun-10 20:00N 43°56' E 009°03'611.2
2018-Jun-10 19:30N 43°54' E 009°10'612.2
2018-Jun-10 19:00N 43°51' E 009°18'611.9
2018-Jun-10 18:30N 43°48' E 009°25'612.2
2018-Jun-10 18:00N 43°44' E 009°31'612.2
2018-Jun-10 17:30N 43°40' E 009°37'612.1
2018-Jun-10 17:00N 43°36' E 009°43'612.0
2018-Jun-10 16:30N 43°32' E 009°50'611.6
2018-Jun-10 16:00N 43°30' E 009°57'611.7
2018-Jun-10 15:30N 43°30' E 010°05'511.0
2018-Jun-10 15:00N 43°31' E 010°13'4 7.6
2018-Jun-10 14:30N 43°33' E 010°18'2 1.7
2018-Jun-10 13:30N 43°34' E 010°18'0 0.0
2018-Jun-10 13:00N 43°34' E 010°18'0 0.0
2018-Jun-10 12:30N 43°34' E 010°18'0 0.0
2018-Jun-10 12:00N 43°34' E 010°18'0 0.0
2018-Jun-10 11:30N 43°34' E 010°18'0 0.0
2018-Jun-10 11:00N 43°34' E 010°18'0 0.0
2018-Jun-10 10:30N 43°34' E 010°18'0 0.0
2018-Jun-10 10:00N 43°34' E 010°18'0 0.0
2018-Jun-10 09:30N 43°34' E 010°18'0 0.0
2018-Jun-10 09:00N 43°34' E 010°18'0 0.0
2018-Jun-10 08:30N 43°34' E 010°18'0 0.0
2018-Jun-10 07:57N 43°34' E 010°18'0 0.1
2018-Jun-10 07:30N 43°34' E 010°18'0 0.0
2018-Jun-10 07:00N 43°34' E 010°18'0 0.0
2018-Jun-10 06:30N 43°34' E 010°18'0 0.0
2018-Jun-10 06:00N 43°34' E 010°18'0 0.0
2018-Jun-10 05:30N 43°34' E 010°18'0 0.0
2018-Jun-10 05:00N 43°34' E 010°18'0 0.0
2018-Jun-10 04:30N 43°34' E 010°18'0 0.0
2018-Jun-10 04:00N 43°34' E 010°18'0 0.0
2018-Jun-10 03:30N 43°34' E 010°18'0 0.0
2018-Jun-10 03:00N 43°34' E 010°18'0 0.0
2018-Jun-10 02:30N 43°34' E 010°18'0 0.0
2018-Jun-10 02:00N 43°34' E 010°18'0 0.0
2018-Jun-10 01:30N 43°35' E 010°18'0 0.0
2018-Jun-10 01:00N 43°34' E 010°18'0 0.0
2018-Jun-10 00:30N 43°34' E 010°18'0 0.0
2018-Jun-10 00:00N 43°34' E 010°18'0 0.0
2018-Jun-09 23:30N 43°34' E 010°18'0 0.0
2018-Jun-09 23:00N 43°34' E 010°18'0 0.0
2018-Jun-09 22:30N 43°34' E 010°18'0 0.0
2018-Jun-09 22:00N 43°34' E 010°18'0 0.0
2018-Jun-09 21:30N 43°34' E 010°18'0 0.0
2018-Jun-09 21:00N 43°34' E 010°18'0 0.0
2018-Jun-09 20:27N 43°34' E 010°18'1 2.3
2018-Jun-09 20:01N 43°34' E 010°18'4 8.1
2018-Jun-09 19:31N 43°30' E 010°14'4 8.6
2018-Jun-09 19:00N 43°26' E 010°12'611.2
2018-Jun-09 18:31N 43°21' E 010°10'714.0
2018-Jun-09 18:00N 43°14' E 010°06'0 0.9
2018-Jun-09 17:30N 43°14' E 010°06'0 0.6
2018-Jun-09 17:00N 43°14' E 010°05'0 0.7
2018-Jun-09 16:30N 43°14' E 010°05'1 1.1
2018-Jun-09 16:00N 43°14' E 010°04'0 1.0
2018-Jun-09 15:30N 43°14' E 010°03'1 1.0
2018-Jun-09 14:30N 43°14' E 010°02'0 0.8
2018-Jun-09 14:00N 43°14' E 010°02'0 0.8
2018-Jun-09 13:30N 43°13' E 010°01'2 4.0
2018-Jun-09 13:00N 43°11' E 010°01'612.1
2018-Jun-09 12:30N 43°05' E 010°01'612.4
2018-Jun-09 12:00N 42°59' E 010°00'612.8
2018-Jun-09 11:30N 42°53' E 009°57'612.7
2018-Jun-09 11:00N 42°47' E 009°54'1512.5
2018-Jun-09 09:49N 42°32' E 009°55'  
Track history (hours):
 
Tides and Currents Weather Stations Pressure Air Temp Water Temp Dewpoint Dewpoint Depression Visibility Wind Speed Wind Dir Waves Ship Positions

Detroit Express

Last reported at 2018-Jun-17 21:21 UTC. Time now 2018-Jun-17 21:56 UTC.
Position N 35°56' W 005°31'.

Length 228 m; draft 9.5 m.

Type: Ship (hazmat cat D). MMSI: 477776300.

Date/timePositionNaut miles runAvg speedWind from/ knotsBaromVisibWave heightAir tempDewpointWater temp
2018-Jun-17 21:21N 35°56' W 005°31'2 0.2
2018-Jun-17 08:02N 35°54' W 005°29'0 0.2
2018-Jun-17 08:00N 35°54' W 005°29'2 3.4
2018-Jun-17 07:29N 35°55' W 005°31'2 1.5
2018-Jun-17 06:02N 35°54' W 005°33'0 4.1
2018-Jun-17 05:59N 35°54' W 005°33'1 2.0
2018-Jun-17 05:27N 35°54' W 005°35'0 0.5
2018-Jun-17 05:00N 35°54' W 005°34'1 1.4
2018-Jun-17 04:20N 35°54' W 005°33'1 1.6
2018-Jun-17 04:00N 35°54' W 005°33'1 2.5
2018-Jun-17 03:27N 35°56' W 005°34'2 4.6
2018-Jun-17 03:00N 35°57' W 005°33'4 7.5
2018-Jun-17 02:30N 35°59' W 005°28'611.4
2018-Jun-17 02:00N 36°00' W 005°22'814.9
2018-Jun-17 01:27N 36°00' W 005°11'613.2
2018-Jun-17 01:00N 35°59' W 005°04'714.3
2018-Jun-17 00:30N 35°59' W 004°55'713.6
2018-Jun-16 23:59N 35°59' W 004°47'3 1.1
2018-Jun-16 21:40N 35°56' W 004°46'1 1.3
2018-Jun-16 21:16N 35°56' W 004°46'0 1.1
2018-Jun-16 20:59N 35°55' W 004°47'1 1.2
2018-Jun-16 20:28N 35°55' W 004°47'1 1.2
2018-Jun-16 19:57N 35°54' W 004°48'1 1.1
2018-Jun-16 19:21N 35°54' W 004°48'5 1.1
2018-Jun-16 15:10N 35°50' W 004°51'19 2.6
2018-Jun-16 07:50N 35°59' W 005°12'619.6
2018-Jun-16 07:31N 36°01' W 005°19'712.6
2018-Jun-16 06:59N 36°06' W 005°24'2 3.5
2018-Jun-16 06:29N 36°08' W 005°25'0 0.0
2018-Jun-16 05:53N 36°08' W 005°25'0 0.0
2018-Jun-16 05:29N 36°08' W 005°25'0 0.0
2018-Jun-16 04:59N 36°08' W 005°25'0 0.0
2018-Jun-16 04:29N 36°08' W 005°25'0 0.0
2018-Jun-16 03:59N 36°08' W 005°25'0 0.0
2018-Jun-16 03:29N 36°08' W 005°25'0 0.0
2018-Jun-16 02:53N 36°08' W 005°25'0 0.0
2018-Jun-16 02:29N 36°08' W 005°25'0 0.0
2018-Jun-16 01:59N 36°08' W 005°25'0 0.0
2018-Jun-16 01:29N 36°08' W 005°25'0 0.0
2018-Jun-16 00:59N 36°08' W 005°25'0 0.0
2018-Jun-16 00:29N 36°08' W 005°25'0 0.0
2018-Jun-15 23:59N 36°08' W 005°25'0 0.0
2018-Jun-15 23:29N 36°08' W 005°25'0 0.0
2018-Jun-15 22:59N 36°08' W 005°25'0 0.0
2018-Jun-15 22:29N 36°08' W 005°25'0 0.0
2018-Jun-15 21:59N 36°08' W 005°25'0 0.0
2018-Jun-15 21:29N 36°08' W 005°25'0 0.0
2018-Jun-15 20:59N 36°08' W 005°25'0 0.0
2018-Jun-15 20:29N 36°08' W 005°25'0 0.0
2018-Jun-15 19:59N 36°08' W 005°25'0 0.0
2018-Jun-15 19:29N 36°08' W 005°25'0 0.0
2018-Jun-15 18:59N 36°08' W 005°25'0 0.0
2018-Jun-15 18:29N 36°08' W 005°25'0 0.0
2018-Jun-15 17:59N 36°08' W 005°25'0 0.0
2018-Jun-15 17:29N 36°08' W 005°25'0 0.0
2018-Jun-15 16:59N 36°08' W 005°25'0 0.0
2018-Jun-15 16:29N 36°08' W 005°25'0 0.0
2018-Jun-15 15:59N 36°08' W 005°25'0 0.0
2018-Jun-15 15:29N 36°08' W 005°25'0 0.0
2018-Jun-15 14:47N 36°08' W 005°25'0 0.1
2018-Jun-15 14:30N 36°08' W 005°25'3 2.4
2018-Jun-15 13:26N 36°06' W 005°23'4 9.7
2018-Jun-15 13:00N 36°02' W 005°21'510.4
2018-Jun-15 12:30N 36°04' W 005°14'3 6.1
2018-Jun-15 12:00N 36°05' W 005°18'4 6.8
2018-Jun-15 11:23N 36°05' W 005°23'2 5.0
2018-Jun-15 11:01N 36°04' W 005°22'2 3.3
2018-Jun-15 10:30N 36°04' W 005°20'1 1.4
2018-Jun-15 10:00N 36°05' W 005°20'0 0.7
2018-Jun-15 09:30N 36°04' W 005°20'1 1.8
2018-Jun-15 09:00N 36°04' W 005°18'4 7.6
2018-Jun-15 08:30N 36°05' W 005°14'19712.7
2018-Jun-14 16:56N 37°03' W 001°19'816.5
2018-Jun-14 16:27N 37°08' W 001°11'816.8
2018-Jun-14 15:59N 37°14' W 001°04'1016.6
2018-Jun-14 15:23N 37°20' W 000°55'616.2
2018-Jun-14 15:00N 37°24' W 000°49'816.0
2018-Jun-14 14:29N 37°30' W 000°42'816.6
2018-Jun-14 14:00N 37°35' W 000°34'816.5
2018-Jun-14 13:30N 37°41' W 000°27'916.8
2018-Jun-14 12:59N 37°48' W 000°20'816.9
2018-Jun-14 12:29N 37°55' W 000°14'916.8
2018-Jun-14 11:59N 38°02' W 000°07'1216.7
2018-Jun-14 11:14N 38°13' W 000°00'516.8
2018-Jun-14 10:57N 38°17' E 000°03'716.8
2018-Jun-14 10:30N 38°23' E 000°08'20316.8
2018-Jun-13 22:22N 41°04' E 002°50'715.9
2018-Jun-13 21:57N 41°10' E 002°55'1116.4
2018-Jun-13 21:15N 41°19' E 003°04'417.4
2018-Jun-13 21:00N 41°22' E 003°08'917.7
2018-Jun-13 20:30N 41°29' E 003°15'918.2
2018-Jun-13 20:00N 41°36' E 003°23'11617.5
2018-Jun-13 13:22N 43°09' E 004°58'616.7
2018-Jun-13 13:00N 43°15' E 005°00'815.3
2018-Jun-13 12:30N 43°22' E 004°58'5 9.4
2018-Jun-13 11:59N 43°24' E 004°52'0 0.2
2018-Jun-13 10:30N 43°24' E 004°51'0 0.0
2018-Jun-13 10:00N 43°24' E 004°51'0 0.0
2018-Jun-13 09:30N 43°24' E 004°51'0 0.0
2018-Jun-13 09:00N 43°24' E 004°51'0 0.0
2018-Jun-13 08:29N 43°24' E 004°51'0 0.0
2018-Jun-13 07:56N 43°24' E 004°51'0 0.0
2018-Jun-13 07:26N 43°24' E 004°51'0 0.0
2018-Jun-13 05:51N 43°24' E 004°51'0 0.0
2018-Jun-13 05:30N 43°24' E 004°51'0 0.0
2018-Jun-13 04:49N 43°24' E 004°51'0 0.0
2018-Jun-13 04:30N 43°24' E 004°51'0 0.0
2018-Jun-13 04:00N 43°24' E 004°51'0 0.3
2018-Jun-13 03:28N 43°24' E 004°51'4 8.2
2018-Jun-13 02:59N 43°23' E 004°56'5 9.3
2018-Jun-13 02:30N 43°19' E 004°59'511.1
2018-Jun-13 02:00N 43°14' E 005°02'713.2
2018-Jun-13 01:29N 43°07' E 005°03'86 3.9
2018-Jun-12 03:12N 43°09' E 007°01'212.3
2018-Jun-12 03:00N 43°10' E 007°03'612.2
2018-Jun-12 02:30N 43°14' E 007°10'612.4
2018-Jun-12 02:00N 43°18' E 007°17'612.6
2018-Jun-12 01:30N 43°22' E 007°24'612.4
2018-Jun-12 00:59N 43°26' E 007°31'1012.4
2018-Jun-12 00:13N 43°31' E 007°41'312.3
2018-Jun-11 23:59N 43°33' E 007°44'612.1
2018-Jun-11 23:29N 43°37' E 007°51'1112.2
2018-Jun-11 22:35N 43°43' E 008°03'312.6
2018-Jun-11 22:20N 43°45' E 008°07'712.8
2018-Jun-11 21:46N 43°50' E 008°14'412.9
2018-Jun-11 21:29N 43°52' E 008°18'612.7
2018-Jun-11 20:59N 43°57' E 008°24'612.4
2018-Jun-11 20:30N 44°01' E 008°30'612.2
2018-Jun-11 20:00N 44°05' E 008°37'611.9
2018-Jun-11 19:30N 44°09' E 008°42'611.8
2018-Jun-11 19:00N 44°13' E 008°48'611.8
2018-Jun-11 18:30N 44°17' E 008°54'510.4
2018-Jun-11 18:00N 44°22' E 008°57'3 6.5
2018-Jun-11 17:31N 44°24' E 008°54'0 0.2
2018-Jun-11 17:00N 44°24' E 008°54'0 0.0
2018-Jun-11 16:30N 44°24' E 008°54'0 0.0
2018-Jun-11 16:00N 44°24' E 008°54'0 0.0
2018-Jun-11 15:30N 44°24' E 008°54'0 0.0
2018-Jun-11 14:57N 44°24' E 008°54'0 0.0
2018-Jun-11 14:30N 44°24' E 008°54'0 0.0
2018-Jun-11 13:57N 44°24' E 008°54'0 0.0
2018-Jun-11 13:30N 44°24' E 008°54'0 0.0
2018-Jun-11 12:57N 44°24' E 008°54'0 0.0
2018-Jun-11 12:30N 44°24' E 008°54'0 0.0
2018-Jun-11 12:00N 44°24' E 008°54'0 0.0
2018-Jun-11 11:27N 44°24' E 008°54'0 0.0
2018-Jun-11 11:00N 44°24' E 008°54'0 0.0
2018-Jun-11 10:30N 44°24' E 008°54'0 0.0
2018-Jun-11 09:57N 44°24' E 008°54'0 0.0
2018-Jun-11 09:30N 44°24' E 008°54'0 0.0
2018-Jun-11 09:00N 44°24' E 008°54'0 0.0
2018-Jun-11 08:30N 44°24' E 008°54'0 0.0
2018-Jun-11 08:00N 44°24' E 008°54'0 0.0
2018-Jun-11 07:30N 44°24' E 008°54'0 0.0
2018-Jun-11 07:00N 44°24' E 008°54'0 0.0
2018-Jun-11 06:30N 44°24' E 008°54'0 0.0
2018-Jun-11 06:00N 44°24' E 008°54'0 0.0
2018-Jun-11 05:30N 44°24' E 008°54'0 0.0
2018-Jun-11 05:00N 44°24' E 008°54'0 0.0
2018-Jun-11 04:30N 44°24' E 008°54'0 0.0
2018-Jun-11 04:00N 44°24' E 008°54'2 3.6
2018-Jun-11 03:30N 44°23' E 008°56'2 3.9
2018-Jun-11 03:00N 44°22' E 008°58'4 7.3
2018-Jun-11 02:30N 44°19' E 008°60'713.1
2018-Jun-11 02:00N 44°12' E 009°01'714.8
2018-Jun-11 01:30N 44°05' E 008°58'714.2
2018-Jun-11 01:00N 43°58' E 008°54'0 0.8
2018-Jun-11 00:30N 43°58' E 008°55'0 0.7
2018-Jun-11 00:00N 43°58' E 008°55'0 0.7
2018-Jun-10 23:30N 43°58' E 008°56'0 0.8
2018-Jun-10 23:00N 43°58' E 008°56'0 0.7
2018-Jun-10 22:30N 43°57' E 008°57'0 0.8
2018-Jun-10 22:00N 43°57' E 008°57'1 1.1
2018-Jun-10 21:30N 43°57' E 008°58'1 1.1
2018-Jun-10 21:00N 43°57' E 008°58'1 1.4
2018-Jun-10 20:30N 43°57' E 008°59'3 5.4
2018-Jun-10 20:00N 43°56' E 009°03'611.2
2018-Jun-10 19:30N 43°54' E 009°10'612.2
2018-Jun-10 19:00N 43°51' E 009°18'611.9
2018-Jun-10 18:30N 43°48' E 009°25'612.2
2018-Jun-10 18:00N 43°44' E 009°31'612.2
2018-Jun-10 17:30N 43°40' E 009°37'612.1
2018-Jun-10 17:00N 43°36' E 009°43'612.0
2018-Jun-10 16:30N 43°32' E 009°50'611.6
2018-Jun-10 16:00N 43°30' E 009°57'611.7
2018-Jun-10 15:30N 43°30' E 010°05'511.0
2018-Jun-10 15:00N 43°31' E 010°13'4 7.6
2018-Jun-10 14:30N 43°33' E 010°18'2 1.7
2018-Jun-10 13:30N 43°34' E 010°18'0 0.0
2018-Jun-10 13:00N 43°34' E 010°18'0 0.0
2018-Jun-10 12:30N 43°34' E 010°18'0 0.0
2018-Jun-10 12:00N 43°34' E 010°18'0 0.0
2018-Jun-10 11:30N 43°34' E 010°18'0 0.0
2018-Jun-10 11:00N 43°34' E 010°18'0 0.0
2018-Jun-10 10:30N 43°34' E 010°18'0 0.0
2018-Jun-10 10:00N 43°34' E 010°18'0 0.0
2018-Jun-10 09:30N 43°34' E 010°18'0 0.0
2018-Jun-10 09:00N 43°34' E 010°18'0 0.0
2018-Jun-10 08:30N 43°34' E 010°18'0 0.0
2018-Jun-10 07:57N 43°34' E 010°18'0 0.1
2018-Jun-10 07:30N 43°34' E 010°18'0 0.0
2018-Jun-10 07:00N 43°34' E 010°18'0 0.0
2018-Jun-10 06:30N 43°34' E 010°18'0 0.0
2018-Jun-10 06:00N 43°34' E 010°18'0 0.0
2018-Jun-10 05:30N 43°34' E 010°18'0 0.0
2018-Jun-10 05:00N 43°34' E 010°18'0 0.0
2018-Jun-10 04:30N 43°34' E 010°18'0 0.0
2018-Jun-10 04:00N 43°34' E 010°18'0 0.0
2018-Jun-10 03:30N 43°34' E 010°18'0 0.0
2018-Jun-10 03:00N 43°34' E 010°18'0 0.0
2018-Jun-10 02:30N 43°34' E 010°18'0 0.0
2018-Jun-10 02:00N 43°34' E 010°18'0 0.0
2018-Jun-10 01:30N 43°35' E 010°18'0 0.0
2018-Jun-10 01:00N 43°34' E 010°18'0 0.0
2018-Jun-10 00:30N 43°34' E 010°18'0 0.0
2018-Jun-10 00:00N 43°34' E 010°18'0 0.0
2018-Jun-09 23:30N 43°34' E 010°18'0 0.0
2018-Jun-09 23:00N 43°34' E 010°18'0 0.0
2018-Jun-09 22:30N 43°34' E 010°18'0 0.0
2018-Jun-09 22:00N 43°34' E 010°18'0 0.0
2018-Jun-09 21:30N 43°34' E 010°18'0 0.0
2018-Jun-09 21:00N 43°34' E 010°18'0 0.0
2018-Jun-09 20:27N 43°34' E 010°18'1 2.3
2018-Jun-09 20:01N 43°34' E 010°18'4 8.1
2018-Jun-09 19:31N 43°30' E 010°14'4 8.6
2018-Jun-09 19:00N 43°26' E 010°12'611.2
2018-Jun-09 18:31N 43°21' E 010°10'714.0
2018-Jun-09 18:00N 43°14' E 010°06'0 0.9
2018-Jun-09 17:30N 43°14' E 010°06'0 0.6
2018-Jun-09 17:00N 43°14' E 010°05'0 0.7
2018-Jun-09 16:30N 43°14' E 010°05'1 1.1
2018-Jun-09 16:00N 43°14' E 010°04'0 1.0
2018-Jun-09 15:30N 43°14' E 010°03'1 1.0
2018-Jun-09 14:30N 43°14' E 010°02'0 0.8
2018-Jun-09 14:00N 43°14' E 010°02'0 0.8
2018-Jun-09 13:30N 43°13' E 010°01'2 4.0
2018-Jun-09 13:00N 43°11' E 010°01'612.1
2018-Jun-09 12:30N 43°05' E 010°01'612.4
2018-Jun-09 12:00N 42°59' E 010°00'612.8
2018-Jun-09 11:30N 42°53' E 009°57'612.7
2018-Jun-09 11:00N 42°47' E 009°54'1512.5
2018-Jun-09 09:49N 42°32' E 009°55'  

Dump ship's entire track history